Time;durP1;ratioP1;P1;durP2;ratioP2;P2;SDS_P1;SDS_P2;PMS_P1;PMS_P2;Temp;Humidity;BMP_temperature;BMP_pressure;BME280_temperature;BME280_humidity;BME280_pressure;Samples;Min_cycle;Max_cycle;Signal;HPM_P1;HPM_P2
2023/09/21 00:01:10;;;;;;;9.83;7.20;;;22.30;93.10;;;;;;5076213;28;20596;-81
2023/09/21 00:03:39;;;;;;;16.07;8.00;;;22.30;93.10;;;;;;5059771;28;20220;-82
2023/09/21 00:06:07;;;;;;;18.47;7.47;;;22.30;93.20;;;;;;5057766;28;20200;-81
2023/09/21 00:08:34;;;;;;;15.40;8.37;;;22.20;93.20;;;;;;5080210;28;20229;-81
2023/09/21 00:11:04;;;;;;;15.03;7.83;;;22.20;93.20;;;;;;5056114;28;20207;-80
2023/09/21 00:13:32;;;;;;;12.03;7.97;;;22.20;93.20;;;;;;5065303;28;20209;-81
2023/09/21 00:16:01;;;;;;;14.43;8.17;;;22.10;93.20;;;;;;5076379;28;20218;-81
2023/09/21 00:18:29;;;;;;;11.83;7.10;;;22.00;93.20;;;;;;5049954;28;20206;-81
2023/09/21 00:21:00;;;;;;;11.43;7.30;;;22.00;93.30;;;;;;5068552;28;20205;-81
2023/09/21 00:23:31;;;;;;;11.50;7.90;;;22.00;93.40;;;;;;5056628;28;20209;-81
2023/09/21 00:26:00;;;;;;;13.27;8.27;;;22.00;93.50;;;;;;5080222;28;20680;-81
2023/09/21 00:28:29;;;;;;;9.93;6.80;;;21.90;93.60;;;;;;5067429;28;20225;-80
2023/09/21 00:30:57;;;;;;;13.13;8.20;;;21.80;93.60;;;;;;5094409;28;20213;-80
2023/09/21 00:33:26;;;;;;;12.40;8.00;;;21.80;93.70;;;;;;5086607;28;20281;-80
2023/09/21 00:35:57;;;;;;;11.20;7.30;;;21.80;93.70;;;;;;5091628;28;20237;-80
2023/09/21 00:38:26;;;;;;;10.17;7.23;;;21.80;93.70;;;;;;5082791;28;20224;-80
2023/09/21 00:40:58;;;;;;;11.30;7.47;;;21.80;93.80;;;;;;5080652;28;20209;-81
2023/09/21 00:43:27;;;;;;;9.97;7.23;;;21.80;93.90;;;;;;5075785;28;20193;-80
2023/09/21 00:45:57;;;;;;;17.23;8.10;;;21.80;94.00;;;;;;5089731;28;20204;-81
2023/09/21 00:48:28;;;;;;;9.63;8.03;;;21.80;94.10;;;;;;5079448;28;20216;-81
2023/09/21 00:50:57;;;;;;;12.40;8.57;;;21.80;94.20;;;;;;5078139;28;20209;-84
2023/09/21 00:53:28;;;;;;;12.10;7.90;;;21.80;94.20;;;;;;5078777;28;20210;-81
2023/09/21 00:56:05;;;;;;;13.33;7.73;;;21.80;94.10;;;;;;5055779;28;20999;-80
2023/09/21 00:58:33;;;;;;;10.83;7.60;;;21.80;94.20;;;;;;5080711;28;20205;-81
2023/09/21 01:01:00;;;;;;;15.77;7.40;;;21.80;94.30;;;;;;5080734;28;20228;-81
2023/09/21 01:03:28;;;;;;;15.17;7.83;;;21.80;94.30;;;;;;5074417;28;20201;-81
2023/09/21 01:05:55;;;;;;;15.40;7.37;;;21.80;94.30;;;;;;5077125;28;20216;-81
2023/09/21 01:08:28;;;;;;;11.20;7.03;;;21.80;94.30;;;;;;5082538;28;20224;-81
2023/09/21 01:10:57;;;;;;;11.43;6.50;;;21.80;94.20;;;;;;5074334;28;20228;-81
2023/09/21 01:13:27;;;;;;;14.83;7.67;;;21.80;94.20;;;;;;5094087;28;20205;-81
2023/09/21 01:16:03;;;;;;;12.57;7.33;;;21.70;94.10;;;;;;5082255;28;20228;-80
2023/09/21 01:18:34;;;;;;;9.77;7.63;;;21.70;94.10;;;;;;5063966;28;20442;-81
2023/09/21 01:21:06;;;;;;;11.80;8.13;;;21.60;94.10;;;;;;5080352;28;20198;-80
2023/09/21 01:23:48;;;;;;;13.77;7.97;;;21.60;94.10;;;;;;5075554;28;20202;-80
2023/09/21 01:26:16;;;;;;;8.93;6.80;;;21.60;94.20;;;;;;5072214;28;20202;-81
2023/09/21 01:28:47;;;;;;;14.73;7.57;;;21.50;94.10;;;;;;5079783;28;20220;-81
2023/09/21 01:31:18;;;;;;;14.23;8.13;;;21.50;94.20;;;;;;5094853;28;20224;-81
2023/09/21 01:33:47;;;;;;;13.90;7.67;;;21.30;94.30;;;;;;5081485;28;20254;-80
2023/09/21 01:36:15;;;;;;;13.37;8.77;;;21.40;94.50;;;;;;5082020;28;20210;-81
2023/09/21 01:38:45;;;;;;;13.73;9.10;;;21.30;94.60;;;;;;5080678;28;20205;-80
2023/09/21 01:41:14;;;;;;;12.27;7.93;;;21.30;94.60;;;;;;5071981;28;20201;-80
2023/09/21 01:43:41;;;;;;;14.43;8.00;;;21.30;94.70;;;;;;5061965;28;20209;-80
2023/09/21 01:46:09;;;;;;;13.07;7.93;;;21.30;94.80;;;;;;5093976;28;20261;-81
2023/09/21 01:48:36;;;;;;;9.47;6.80;;;21.30;94.80;;;;;;5054562;28;20202;-81
2023/09/21 01:51:05;;;;;;;15.97;7.87;;;21.30;94.90;;;;;;5063949;28;20211;-81
2023/09/21 01:53:33;;;;;;;13.80;7.97;;;21.30;94.80;;;;;;5070541;28;20198;-81
2023/09/21 01:56:00;;;;;;;10.17;8.27;;;21.30;94.70;;;;;;5069332;28;20226;-81
2023/09/21 01:58:28;;;;;;;11.77;8.43;;;21.30;94.80;;;;;;5081351;28;20216;-81
2023/09/21 02:00:55;;;;;;;14.00;8.20;;;21.20;94.90;;;;;;5084010;28;20687;-80
2023/09/21 02:03:29;;;;;;;11.10;8.20;;;21.20;95.00;;;;;;5066735;28;20286;-81
2023/09/21 02:05:59;;;;;;;10.90;7.97;;;21.20;95.30;;;;;;5076800;28;20219;-80
2023/09/21 02:08:26;;;;;;;10.93;8.07;;;21.30;95.00;;;;;;5099104;28;20209;-80
2023/09/21 02:10:54;;;;;;;14.27;8.03;;;21.30;95.00;;;;;;5060876;28;20603;-80
2023/09/21 02:13:22;;;;;;;10.87;8.00;;;21.30;95.00;;;;;;5088405;28;20193;-80
2023/09/21 02:15:51;;;;;;;13.93;8.03;;;21.30;95.10;;;;;;5079750;28;20540;-80
2023/09/21 02:18:20;;;;;;;9.93;8.00;;;21.30;95.00;;;;;;5077163;28;20208;-80
2023/09/21 02:20:54;;;;;;;16.50;9.13;;;21.30;95.00;;;;;;5075199;28;20201;-81
2023/09/21 02:23:26;;;;;;;22.63;10.10;;;21.30;95.10;;;;;;5059756;28;20236;-80
2023/09/21 02:25:53;;;;;;;14.27;9.37;;;21.30;95.20;;;;;;5068321;28;20512;-80
2023/09/21 02:28:23;;;;;;;20.70;8.43;;;21.30;95.20;;;;;;5063065;28;20289;-80
2023/09/21 02:30:51;;;;;;;15.00;9.30;;;21.30;95.30;;;;;;5061567;28;20213;-80
2023/09/21 02:33:19;;;;;;;12.90;8.97;;;21.30;95.30;;;;;;5069846;28;20199;-81
2023/09/21 02:35:47;;;;;;;11.93;9.50;;;21.30;95.30;;;;;;5058686;28;20229;-81
2023/09/21 02:38:21;;;;;;;14.43;9.37;;;21.30;95.40;;;;;;5047218;28;20206;-81
2023/09/21 02:40:48;;;;;;;14.43;9.17;;;21.30;95.50;;;;;;5058994;28;20204;-80
2023/09/21 02:43:16;;;;;;;17.13;8.77;;;21.30;95.50;;;;;;5042462;28;20211;-81
2023/09/21 02:45:44;;;;;;;15.63;8.93;;;21.30;95.60;;;;;;5049970;28;20199;-81
2023/09/21 02:48:15;;;;;;;15.90;9.13;;;21.30;95.60;;;;;;5062125;28;20646;-80
2023/09/21 02:50:47;;;;;;;20.77;9.13;;;21.30;95.80;;;;;;5057306;28;20209;-82
2023/09/21 02:53:16;;;;;;;12.80;9.07;;;21.30;95.60;;;;;;5059554;28;20207;-81
2023/09/21 02:55:44;;;;;;;15.23;8.20;;;21.40;95.60;;;;;;5061185;28;20241;-81
2023/09/21 02:58:13;;;;;;;13.17;7.80;;;21.40;95.60;;;;;;5055529;28;20637;-81
2023/09/21 03:00:49;;;;;;;13.77;9.10;;;21.30;95.60;;;;;;5048233;28;20197;-80
2023/09/21 03:03:22;;;;;;;13.00;8.33;;;21.40;95.70;;;;;;5056915;28;20202;-80
2023/09/21 03:05:51;;;;;;;11.30;8.23;;;21.40;95.70;;;;;;5051894;28;20225;-80
2023/09/21 03:08:22;;;;;;;18.67;9.30;;;21.40;95.70;;;;;;5065865;28;20198;-80
2023/09/21 03:10:54;;;;;;;15.30;8.97;;;21.40;95.70;;;;;;5073633;28;20202;-81
2023/09/21 03:13:22;;;;;;;13.00;9.10;;;21.40;95.70;;;;;;5054374;28;20232;-79
2023/09/21 03:15:53;;;;;;;17.20;8.93;;;21.40;95.80;;;;;;5061184;28;20233;-80
2023/09/21 03:18:21;;;;;;;16.10;9.53;;;21.40;95.80;;;;;;5058234;28;20278;-80
2023/09/21 03:20:52;;;;;;;15.93;8.57;;;21.40;95.80;;;;;;5046998;28;20217;-82
2023/09/21 03:23:22;;;;;;;18.43;9.53;;;21.50;95.80;;;;;;5063114;28;20261;-81
2023/09/21 03:25:51;;;;;;;18.07;9.20;;;21.50;95.80;;;;;;5046112;28;20209;-81
2023/09/21 03:28:19;;;;;;;13.13;9.47;;;21.50;95.70;;;;;;5062270;28;20202;-81
2023/09/21 03:30:53;;;;;;;16.20;9.53;;;21.50;95.60;;;;;;5058397;28;20205;-81
2023/09/21 03:33:22;;;;;;;18.20;9.80;;;21.50;95.70;;;;;;5067036;28;20213;-80
2023/09/21 03:35:51;;;;;;;18.10;9.23;;;21.40;95.70;;;;;;5064795;28;20209;-80
2023/09/21 03:38:21;;;;;;;15.03;9.37;;;21.40;95.80;;;;;;5057246;28;20201;-81
2023/09/21 03:40:49;;;;;;;15.97;10.23;;;21.40;95.90;;;;;;5065251;28;20209;-78
2023/09/21 03:43:31;;;;;;;12.03;8.67;;;21.30;96.00;;;;;;5072928;28;20193;-80
2023/09/21 03:46:10;;;;;;;15.83;9.50;;;21.30;96.10;;;;;;5066010;28;20374;-80
2023/09/21 03:48:38;;;;;;;14.70;9.23;;;21.30;96.20;;;;;;5083345;28;20200;-81
2023/09/21 03:51:06;;;;;;;13.27;8.77;;;21.30;96.20;;;;;;5083570;28;20193;-80
2023/09/21 03:53:57;;;;;;;13.77;8.73;;;21.30;96.30;;;;;;5074363;28;20223;-81
2023/09/21 03:56:28;;;;;;;18.47;9.03;;;21.30;96.30;;;;;;5100507;28;20229;-81
2023/09/21 03:58:56;;;;;;;15.70;8.53;;;21.30;96.20;;;;;;5069156;28;20201;-81
2023/09/21 04:01:29;;;;;;;13.13;8.73;;;21.30;96.10;;;;;;5062162;28;20269;-80
2023/09/21 04:04:09;;;;;;;19.17;7.80;;;21.30;96.10;;;;;;5063257;28;20593;-81
2023/09/21 04:06:46;;;;;;;11.97;8.40;;;21.30;95.90;;;;;;5066849;28;20705;-81
2023/09/21 04:09:20;;;;;;;13.73;8.23;;;21.30;95.90;;;;;;5085321;28;20236;-81
2023/09/21 04:11:48;;;;;;;12.70;8.63;;;21.30;95.90;;;;;;5083316;28;20235;-80
2023/09/21 04:14:15;;;;;;;12.47;8.33;;;21.30;96.00;;;;;;5068788;28;20208;-81
2023/09/21 04:17:00;;;;;;;12.07;9.33;;;21.20;96.00;;;;;;5080566;28;20225;-80
2023/09/21 04:19:34;;;;;;;13.33;9.53;;;21.30;96.10;;;;;;5066058;28;20207;-81
2023/09/21 04:22:02;;;;;;;12.97;8.93;;;21.20;96.10;;;;;;5094968;28;20215;-81
2023/09/21 04:24:43;;;;;;;19.27;10.37;;;21.20;96.20;;;;;;5068676;28;20201;-81
2023/09/21 04:27:15;;;;;;;17.20;9.40;;;21.20;96.30;;;;;;5080285;28;20221;-79
2023/09/21 04:29:44;;;;;;;15.83;9.60;;;21.20;96.30;;;;;;5081687;28;20267;-80
2023/09/21 04:32:18;;;;;;;16.47;9.07;;;21.30;96.30;;;;;;5064261;28;20209;-80
2023/09/21 04:34:46;;;;;;;12.33;8.50;;;21.30;96.30;;;;;;5062645;28;20276;-80
2023/09/21 04:37:19;;;;;;;15.43;8.57;;;21.20;96.30;;;;;;5064594;28;20242;-80
2023/09/21 04:39:51;;;;;;;14.90;9.43;;;21.20;96.30;;;;;;5082239;28;20205;-80
2023/09/21 04:42:21;;;;;;;14.50;8.57;;;21.20;96.40;;;;;;5071680;28;20543;-80
2023/09/21 04:44:50;;;;;;;14.03;8.27;;;21.20;96.40;;;;;;5082732;28;20225;-80
2023/09/21 04:47:18;;;;;;;18.10;9.87;;;21.20;96.50;;;;;;5091031;28;20263;-80
2023/09/21 04:49:45;;;;;;;13.80;10.10;;;21.20;96.50;;;;;;5066143;28;20232;-82
2023/09/21 04:52:16;;;;;;;18.83;10.07;;;21.20;96.50;;;;;;5061067;28;20223;-80
2023/09/21 04:54:51;;;;;;;18.40;10.30;;;21.20;96.50;;;;;;5075712;28;20205;-80
2023/09/21 04:57:23;;;;;;;15.63;9.07;;;21.30;96.50;;;;;;5080130;28;20294;-80
2023/09/21 05:00:07;;;;;;;17.73;9.90;;;21.30;96.50;;;;;;5092409;28;20212;-80
2023/09/21 05:02:48;;;;;;;15.77;9.47;;;21.30;96.50;;;;;;5092838;28;20200;-80
2023/09/21 05:05:18;;;;;;;15.20;9.10;;;21.30;96.50;;;;;;5075341;28;20201;-80
2023/09/21 05:07:59;;;;;;;11.67;8.90;;;21.30;96.50;;;;;;5065762;28;20201;-79
2023/09/21 05:10:27;;;;;;;20.03;9.23;;;21.30;96.50;;;;;;5074387;28;20221;-83
2023/09/21 05:13:02;;;;;;;13.47;9.53;;;21.30;96.50;;;;;;5080344;28;20302;-79
2023/09/21 05:15:34;;;;;;;15.20;9.67;;;21.30;96.50;;;;;;5065508;28;20201;-80
2023/09/21 05:18:16;;;;;;;16.17;9.00;;;21.30;96.50;;;;;;5084162;28;20201;-81
2023/09/21 05:20:55;;;;;;;15.63;9.53;;;21.30;96.50;;;;;;5069410;28;20228;-78
2023/09/21 05:23:22;;;;;;;13.43;8.30;;;21.40;96.50;;;;;;5080701;28;20209;-81
2023/09/21 05:25:56;;;;;;;14.67;9.20;;;21.40;96.50;;;;;;5067802;28;20300;-79
2023/09/21 05:28:25;;;;;;;16.03;9.37;;;21.40;96.50;;;;;;5066534;28;20208;-79
2023/09/21 05:31:00;;;;;;;17.73;9.77;;;21.40;96.50;;;;;;5066893;28;20229;-80
2023/09/21 05:33:27;;;;;;;12.43;9.30;;;21.40;96.50;;;;;;5048409;28;20206;-80
2023/09/21 05:35:56;;;;;;;15.07;8.93;;;21.40;96.40;;;;;;5063345;28;20336;-79
2023/09/21 05:38:24;;;;;;;16.17;8.83;;;21.50;96.50;;;;;;5035700;28;20248;-80
2023/09/21 05:40:57;;;;;;;14.90;10.07;;;21.50;96.40;;;;;;5046272;28;20211;-79
2023/09/21 05:43:25;;;;;;;17.50;9.43;;;21.50;96.40;;;;;;5032682;28;20203;-79
2023/09/21 05:46:07;;;;;;;16.10;9.60;;;21.40;96.30;;;;;;5067464;28;20638;-79
2023/09/21 05:48:35;;;;;;;19.90;9.03;;;21.40;96.40;;;;;;5062553;28;20267;-81
2023/09/21 05:51:04;;;;;;;16.17;9.27;;;21.40;96.40;;;;;;5067307;28;20209;-80
2023/09/21 05:53:33;;;;;;;13.77;9.20;;;21.60;96.50;;;;;;5033519;28;20203;-80
2023/09/21 05:56:04;;;;;;;14.27;9.83;;;21.80;96.20;;;;;;5059232;28;20224;-80
2023/09/21 05:58:46;;;;;;;14.17;8.40;;;22.20;95.50;;;;;;5062552;28;20237;-79
2023/09/21 06:01:18;;;;;;;19.90;10.27;;;22.30;94.90;;;;;;5037969;28;20297;-80
2023/09/21 06:03:52;;;;;;;14.30;9.27;;;22.30;94.70;;;;;;5040604;28;20206;-80
2023/09/21 06:06:20;;;;;;;15.27;9.53;;;22.30;94.80;;;;;;5041342;28;20209;-80
2023/09/21 06:08:57;;;;;;;16.70;9.90;;;22.20;94.90;;;;;;5053695;28;20225;-80
2023/09/21 06:11:29;;;;;;;14.30;9.10;;;22.10;95.10;;;;;;5052114;28;20201;-80
2023/09/21 06:14:10;;;;;;;16.13;8.87;;;22.10;95.20;;;;;;5045279;28;20210;-81
2023/09/21 06:16:57;;;;;;;14.83;8.87;;;22.10;95.30;;;;;;5061077;28;20240;-79
2023/09/21 06:19:40;;;;;;;16.77;8.90;;;22.20;95.30;;;;;;5045137;28;20206;-80
2023/09/21 06:22:11;;;;;;;13.00;8.90;;;22.30;95.30;;;;;;5039195;28;20198;-80
2023/09/21 06:25:01;;;;;;;12.93;9.30;;;22.30;95.10;;;;;;5054676;28;20289;-79
2023/09/21 06:27:32;;;;;;;14.10;9.27;;;22.40;94.90;;;;;;5045426;28;20236;-79
2023/09/21 06:30:01;;;;;;;18.13;9.50;;;22.40;94.80;;;;;;5048766;28;20238;-80
2023/09/21 06:32:35;;;;;;;11.80;9.03;;;22.50;94.70;;;;;;5051347;28;20213;-81
2023/09/21 06:35:03;;;;;;;18.90;9.77;;;22.50;94.60;;;;;;5061674;28;20202;-80
2023/09/21 06:37:34;;;;;;;18.23;9.43;;;22.60;94.70;;;;;;5058158;28;20237;-81
2023/09/21 06:40:15;;;;;;;15.47;9.47;;;22.70;94.30;;;;;;5041581;28;20288;-80
2023/09/21 06:42:42;;;;;;;15.53;9.77;;;22.70;94.30;;;;;;5063978;28;20237;-80
2023/09/21 06:45:10;;;;;;;16.00;9.50;;;22.70;94.40;;;;;;5061030;28;20641;-79
2023/09/21 06:47:38;;;;;;;17.37;10.37;;;22.70;94.50;;;;;;5071639;28;20203;-79
2023/09/21 06:50:10;;;;;;;16.37;9.73;;;22.80;94.50;;;;;;5056759;28;20207;-81
2023/09/21 06:52:38;;;;;;;12.87;9.40;;;22.80;94.60;;;;;;5069892;28;20233;-80
2023/09/21 06:55:05;;;;;;;14.13;10.43;;;22.90;94.50;;;;;;5047947;28;20222;-80
2023/09/21 06:57:34;;;;;;;14.33;10.17;;;22.90;94.50;;;;;;5047885;28;20222;-82
2023/09/21 07:00:02;;;;;;;13.57;9.80;;;23.00;94.50;;;;;;5073414;28;20198;-80
2023/09/21 07:02:30;;;;;;;22.33;9.93;;;23.10;94.50;;;;;;5057211;28;20577;-80
2023/09/21 07:04:57;;;;;;;21.47;10.80;;;23.10;94.40;;;;;;5047842;28;20208;-80
2023/09/21 07:07:25;;;;;;;18.43;10.80;;;23.20;94.40;;;;;;5065675;28;20207;-81
2023/09/21 07:09:54;;;;;;;17.80;11.00;;;23.20;94.40;;;;;;5054105;28;20653;-81
2023/09/21 07:12:25;;;;;;;21.50;10.60;;;23.30;94.40;;;;;;5044174;28;20279;-80
2023/09/21 07:14:52;;;;;;;19.07;10.83;;;23.40;94.30;;;;;;5052887;28;20224;-81
2023/09/21 07:17:22;;;;;;;20.33;11.03;;;23.40;94.20;;;;;;5063695;28;20210;-81
2023/09/21 07:19:50;;;;;;;18.07;10.67;;;23.50;94.20;;;;;;5049825;28;20590;-81
2023/09/21 07:22:17;;;;;;;22.33;11.30;;;23.60;94.40;;;;;;5043843;28;20209;-80
2023/09/21 07:24:47;;;;;;;18.40;10.83;;;23.70;94.10;;;;;;5067041;28;20688;-81
2023/09/21 07:27:16;;;;;;;19.20;11.80;;;23.80;94.00;;;;;;5054669;28;20203;-81
2023/09/21 07:29:44;;;;;;;15.33;10.57;;;23.90;93.90;;;;;;5065831;28;20247;-81
2023/09/21 07:32:11;;;;;;;15.40;10.33;;;24.00;93.70;;;;;;5089301;28;20254;-80
2023/09/21 07:34:39;;;;;;;21.50;12.33;;;24.10;93.40;;;;;;5076594;28;20194;-80
2023/09/21 07:37:10;;;;;;;19.20;11.67;;;24.30;93.10;;;;;;5072035;28;20226;-82
2023/09/21 07:39:37;;;;;;;19.30;12.27;;;24.40;93.10;;;;;;5087554;28;20206;-82
2023/09/21 07:42:04;;;;;;;19.27;12.10;;;24.60;93.10;;;;;;5070301;28;20207;-80
2023/09/21 07:44:31;;;;;;;15.60;10.03;;;24.70;93.00;;;;;;5085056;28;20225;-80
2023/09/21 07:46:59;;;;;;;14.10;9.83;;;24.90;92.60;;;;;;5071189;28;20197;-82
2023/09/21 07:49:27;;;;;;;19.77;9.17;;;25.00;92.10;;;;;;5070834;28;20210;-80
2023/09/21 07:51:55;;;;;;;15.30;10.33;;;25.20;91.90;;;;;;5092297;28;20233;-82
2023/09/21 07:54:22;;;;;;;19.87;9.47;;;25.40;91.50;;;;;;5071948;28;20201;-82
2023/09/21 07:56:49;;;;;;;15.17;8.10;;;25.50;91.40;;;;;;5056562;28;20210;-80
2023/09/21 07:59:17;;;;;;;17.37;8.37;;;25.70;91.00;;;;;;5062742;28;20539;-80
2023/09/21 08:01:45;;;;;;;13.03;7.63;;;25.90;90.60;;;;;;5070109;28;20270;-83
2023/09/21 08:04:13;;;;;;;13.43;8.20;;;26.20;90.30;;;;;;5088716;28;20638;-81
2023/09/21 08:06:40;;;;;;;11.23;6.83;;;26.40;88.90;;;;;;5073130;28;20229;-81
2023/09/21 08:09:08;;;;;;;21.53;7.87;;;26.50;88.00;;;;;;5078889;28;20301;-81
2023/09/21 08:11:55;;;;;;;17.17;6.97;;;26.50;87.00;;;;;;5075911;28;20537;-81
2023/09/21 08:14:23;;;;;;;16.00;6.50;;;26.50;85.90;;;;;;5074885;28;20211;-81
2023/09/21 08:16:53;;;;;;;15.80;7.23;;;26.40;85.60;;;;;;5063235;28;20227;-82
2023/09/21 08:19:21;;;;;;;14.43;6.73;;;26.40;85.60;;;;;;5075178;28;20214;-82
2023/09/21 08:21:49;;;;;;;9.10;5.53;;;26.40;85.50;;;;;;5059140;28;20191;-81
2023/09/21 08:24:16;;;;;;;8.83;4.97;;;26.50;84.90;;;;;;5077083;28;20205;-80
2023/09/21 08:26:43;;;;;;;9.83;3.67;;;26.60;84.50;;;;;;5062975;28;20607;-81
2023/09/21 08:29:12;;;;;;;7.43;4.40;;;26.60;83.60;;;;;;5066672;28;20252;-81
2023/09/21 08:31:41;;;;;;;10.93;4.40;;;26.60;83.10;;;;;;5080911;28;20301;-80
2023/09/21 08:34:08;;;;;;;7.50;4.20;;;26.70;83.60;;;;;;5068569;28;20228;-81
2023/09/21 08:36:36;;;;;;;16.20;3.80;;;26.80;83.40;;;;;;5070378;28;20302;-83
2023/09/21 08:39:04;;;;;;;9.27;3.80;;;27.00;81.50;;;;;;5082277;28;20208;-81
2023/09/21 08:41:35;;;;;;;7.70;3.20;;;27.30;80.30;;;;;;5095808;28;20202;-81
2023/09/21 08:44:04;;;;;;;11.43;4.37;;;27.50;79.40;;;;;;5094030;28;20201;-81
2023/09/21 08:46:32;;;;;;;5.80;3.60;;;27.70;78.70;;;;;;5076714;28;20237;-80
2023/09/21 08:49:01;;;;;;;8.77;3.93;;;27.80;77.70;;;;;;5095651;28;20198;-81
2023/09/21 08:51:32;;;;;;;10.23;3.87;;;28.10;77.10;;;;;;5075591;28;20205;-82
2023/09/21 08:54:02;;;;;;;13.43;4.00;;;28.20;76.60;;;;;;5078995;28;20229;-81
2023/09/21 08:56:33;;;;;;;13.80;3.63;;;28.30;76.00;;;;;;5097575;28;20205;-80
2023/09/21 08:59:01;;;;;;;6.20;3.20;;;28.40;75.90;;;;;;5094164;28;20201;-80
2023/09/21 09:01:28;;;;;;;8.20;3.73;;;28.50;75.50;;;;;;5073053;28;20695;-80
2023/09/21 09:03:56;;;;;;;7.70;3.37;;;28.60;74.60;;;;;;5076145;28;20266;-81
2023/09/21 09:06:24;;;;;;;6.27;2.80;;;28.70;74.20;;;;;;5059210;28;20197;-81
2023/09/21 09:08:51;;;;;;;10.83;3.33;;;28.80;73.80;;;;;;5070995;28;20194;-80
2023/09/21 09:11:34;;;;;;;10.53;3.50;;;28.80;73.50;;;;;;5063920;28;20579;-79
2023/09/21 09:14:02;;;;;;;9.60;3.93;;;28.90;73.40;;;;;;5073079;28;20256;-81
2023/09/21 09:16:30;;;;;;;7.67;3.37;;;28.90;73.10;;;;;;5073144;28;20201;-81
2023/09/21 09:18:58;;;;;;;10.07;3.80;;;29.00;72.90;;;;;;5080114;28;20201;-80
2023/09/21 09:21:26;;;;;;;7.23;3.93;;;29.00;72.80;;;;;;5062633;28;20216;-79
2023/09/21 09:23:53;;;;;;;8.23;3.53;;;29.10;72.70;;;;;;5067042;28;20206;-80
2023/09/21 09:26:20;;;;;;;11.13;3.50;;;29.20;71.90;;;;;;5076545;28;20213;-81
2023/09/21 09:28:48;;;;;;;6.87;2.93;;;29.20;71.40;;;;;;5073933;28;20273;-81
2023/09/21 09:31:18;;;;;;;7.40;3.07;;;29.30;70.60;;;;;;5069556;28;20544;-79
2023/09/21 09:33:48;;;;;;;8.03;3.43;;;29.30;70.00;;;;;;5086975;28;20206;-80
2023/09/21 09:36:17;;;;;;;9.03;3.73;;;29.30;69.30;;;;;;5074491;28;20201;-79
2023/09/21 09:38:44;;;;;;;9.60;3.20;;;29.40;69.50;;;;;;5085894;28;20216;-80
2023/09/21 09:41:14;;;;;;;10.80;2.93;;;29.50;69.20;;;;;;5079159;28;20535;-82
2023/09/21 09:43:42;;;;;;;7.50;3.30;;;29.50;68.50;;;;;;5082460;28;20201;-79
2023/09/21 09:46:12;;;;;;;7.37;2.97;;;29.60;68.10;;;;;;5056369;28;20295;-80
2023/09/21 09:48:40;;;;;;;8.43;2.77;;;29.60;67.60;;;;;;5078636;28;20634;-80
2023/09/21 09:51:11;;;;;;;7.27;3.13;;;29.70;67.30;;;;;;5070194;28;20603;-80
2023/09/21 09:53:40;;;;;;;7.73;2.70;;;29.70;66.40;;;;;;5070663;28;20776;-80
2023/09/21 09:56:10;;;;;;;8.13;3.17;;;29.70;65.60;;;;;;5092581;28;20202;-80
2023/09/21 09:58:41;;;;;;;9.30;3.00;;;29.70;65.70;;;;;;5096022;28;20215;-80
2023/09/21 10:01:11;;;;;;;8.17;3.50;;;29.70;65.80;;;;;;5071601;28;20216;-81
2023/09/21 10:03:40;;;;;;;4.70;2.70;;;29.60;65.70;;;;;;5094426;28;20190;-80
2023/09/21 10:06:09;;;;;;;7.33;2.70;;;29.70;65.60;;;;;;5080284;28;21359;-80
2023/09/21 10:08:38;;;;;;;6.87;2.87;;;29.70;64.70;;;;;;5069835;28;20209;-79
2023/09/21 10:11:07;;;;;;;7.43;2.60;;;29.70;64.50;;;;;;5081077;28;20212;-80
2023/09/21 10:13:51;;;;;;;4.33;2.23;;;29.80;64.30;;;;;;5092281;28;20201;-80
2023/09/21 10:16:19;;;;;;;9.00;3.30;;;29.80;64.40;;;;;;5091250;28;20194;-80
2023/09/21 10:18:53;;;;;;;7.23;3.03;;;29.90;64.80;;;;;;5082170;28;20285;-81
2023/09/21 10:21:31;;;;;;;7.70;2.77;;;30.00;64.20;;;;;;5089722;28;20278;-82
2023/09/21 10:24:06;;;;;;;6.97;3.10;;;30.10;63.90;;;;;;5066058;28;20192;-79
2023/09/21 10:26:38;;;;;;;10.70;3.50;;;30.10;63.90;;;;;;5075902;28;20197;-81
2023/09/21 10:29:07;;;;;;;11.47;3.27;;;30.10;63.50;;;;;;5062947;28;20304;-82
2023/09/21 10:31:39;;;;;;;8.90;3.13;;;30.00;63.30;;;;;;5090465;28;20202;-80
2023/09/21 10:34:08;;;;;;;8.67;3.37;;;30.00;64.10;;;;;;5070861;28;20205;-80
2023/09/21 10:36:40;;;;;;;8.77;3.43;;;30.00;63.90;;;;;;5073884;28;20794;-80
2023/09/21 10:39:10;;;;;;;7.13;3.43;;;30.10;64.30;;;;;;5072702;28;20645;-80
2023/09/21 10:41:41;;;;;;;9.20;3.63;;;30.10;64.30;;;;;;5090624;28;20194;-80
2023/09/21 10:44:32;;;;;;;10.33;4.67;;;30.20;64.10;;;;;;5076483;28;20216;-81
2023/09/21 10:47:00;;;;;;;9.47;3.27;;;30.30;64.00;;;;;;5072030;28;20485;-80
2023/09/21 10:49:34;;;;;;;10.33;3.33;;;30.40;63.70;;;;;;5063947;28;20300;-80
2023/09/21 10:52:02;;;;;;;8.90;3.63;;;30.40;62.80;;;;;;5072505;28;20193;-80
2023/09/21 10:54:30;;;;;;;6.07;3.27;;;30.40;63.10;;;;;;5071108;28;20614;-81
2023/09/21 10:57:00;;;;;;;7.43;3.83;;;30.50;63.60;;;;;;5079797;28;20288;-80
2023/09/21 10:59:31;;;;;;;9.63;3.73;;;30.50;63.30;;;;;;5076113;28;20206;-81
2023/09/21 11:01:58;;;;;;;11.00;3.73;;;30.50;63.10;;;;;;5068372;28;20292;-81
2023/09/21 11:04:26;;;;;;;6.40;3.13;;;30.60;62.20;;;;;;5069992;28;20201;-81
2023/09/21 11:06:53;;;;;;;13.90;4.20;;;30.50;61.20;;;;;;5091831;28;20566;-81
2023/09/21 11:09:20;;;;;;;8.87;3.50;;;30.50;61.70;;;;;;5070695;28;20209;-85
2023/09/21 11:11:49;;;;;;;9.13;4.83;;;30.50;62.20;;;;;;5075731;28;20292;-81
2023/09/21 11:14:16;;;;;;;12.37;5.83;;;30.50;61.90;;;;;;5067973;28;20258;-81
2023/09/21 11:16:43;;;;;;;13.73;4.57;;;30.50;62.20;;;;;;5074664;28;20197;-82
2023/09/21 11:19:11;;;;;;;9.53;4.40;;;30.40;62.60;;;;;;5074080;28;20312;-81
2023/09/21 11:21:40;;;;;;;10.67;4.90;;;30.50;62.00;;;;;;5069609;28;20293;-81
2023/09/21 11:24:08;;;;;;;9.93;4.93;;;30.40;62.20;;;;;;5055761;28;20353;-81
2023/09/21 11:26:35;;;;;;;11.57;4.63;;;30.50;61.70;;;;;;5079324;28;20517;-81
2023/09/21 11:29:04;;;;;;;8.23;4.07;;;30.50;62.20;;;;;;5073134;28;20314;-81
2023/09/21 11:31:31;;;;;;;12.57;4.90;;;30.60;62.50;;;;;;5056276;28;20212;-81
2023/09/21 11:34:07;;;;;;;10.77;4.80;;;30.60;62.10;;;;;;5073119;28;20205;-81
2023/09/21 11:36:36;;;;;;;6.63;3.33;;;30.70;61.70;;;;;;5067503;28;20244;-81
2023/09/21 11:39:08;;;;;;;6.13;2.83;;;30.80;60.70;;;;;;5051753;28;20234;-81
2023/09/21 11:41:36;;;;;;;4.03;2.53;;;30.80;60.60;;;;;;5076253;28;20212;-81
2023/09/21 11:44:04;;;;;;;6.23;2.10;;;30.80;59.80;;;;;;5062044;28;20209;-81
2023/09/21 11:46:34;;;;;;;6.13;2.97;;;30.80;57.40;;;;;;5069086;28;20193;-84
2023/09/21 11:49:03;;;;;;;10.77;2.90;;;30.80;57.30;;;;;;5071899;28;20229;-81
2023/09/21 11:51:31;;;;;;;5.40;2.83;;;30.70;57.60;;;;;;5077286;28;20197;-84
2023/09/21 11:54:00;;;;;;;4.83;2.23;;;30.60;58.00;;;;;;5078113;28;20546;-82
2023/09/21 11:56:27;;;;;;;6.40;2.50;;;30.50;58.20;;;;;;5080858;28;20262;-81
2023/09/21 11:58:58;;;;;;;8.47;2.30;;;30.50;58.50;;;;;;5070721;28;20218;-82
2023/09/21 12:01:28;;;;;;;5.27;1.73;;;30.50;57.30;;;;;;5080058;28;20205;-82
2023/09/21 12:04:17;;;;;;;6.37;2.10;;;30.50;56.80;;;;;;5061754;28;20201;-82
2023/09/21 12:06:51;;;;;;;5.00;1.97;;;30.50;57.80;;;;;;5064496;28;20554;-83
2023/09/21 12:09:18;;;;;;;7.10;2.27;;;30.50;58.30;;;;;;5078099;28;20204;-81
2023/09/21 12:11:48;;;;;;;4.73;1.97;;;30.60;58.40;;;;;;5073624;28;20209;-81
2023/09/21 12:14:15;;;;;;;6.23;2.10;;;30.70;57.90;;;;;;5081691;28;20197;-83
2023/09/21 12:16:42;;;;;;;6.57;2.23;;;30.80;57.50;;;;;;5074518;28;20271;-82
2023/09/21 12:19:10;;;;;;;5.30;2.20;;;30.90;57.40;;;;;;5055211;28;20229;-82
2023/09/21 12:21:38;;;;;;;8.37;2.83;;;31.00;56.90;;;;;;5076494;28;20212;-82
2023/09/21 12:24:06;;;;;;;6.40;2.20;;;31.10;56.50;;;;;;5054056;28;20259;-82
2023/09/21 12:26:36;;;;;;;5.60;1.93;;;31.10;56.50;;;;;;5077177;28;20238;-82
2023/09/21 12:29:04;;;;;;;5.63;2.10;;;31.10;56.50;;;;;;5066004;28;20245;-80
2023/09/21 12:31:31;;;;;;;7.10;2.03;;;31.20;55.90;;;;;;5078282;28;20189;-82
2023/09/21 12:34:15;;;;;;;4.77;2.57;;;31.20;55.60;;;;;;5083996;28;20209;-82
2023/09/21 12:36:42;;;;;;;5.00;2.40;;;31.20;55.50;;;;;;5064586;28;20209;-81
2023/09/21 12:39:11;;;;;;;3.60;1.90;;;31.20;54.70;;;;;;5073979;28;20225;-81
2023/09/21 12:41:39;;;;;;;4.17;1.80;;;31.10;55.20;;;;;;5063119;28;20197;-82
2023/09/21 12:44:10;;;;;;;6.23;2.63;;;31.10;55.40;;;;;;5068716;28;20190;-83
2023/09/21 12:46:37;;;;;;;9.03;2.00;;;31.10;55.30;;;;;;5083678;28;20220;-83
2023/09/21 12:49:05;;;;;;;3.93;2.10;;;31.00;55.50;;;;;;5065927;28;20204;-81
2023/09/21 12:51:34;;;;;;;4.53;2.03;;;31.00;55.10;;;;;;5078143;28;20201;-82
2023/09/21 12:54:02;;;;;;;7.63;2.53;;;31.00;55.30;;;;;;5081466;28;20201;-84